Time;durP1;ratioP1;P1;durP2;ratioP2;P2;SDS_P1;SDS_P2;PMS_P1;PMS_P2;Temp;Humidity;BMP_temperature;BMP_pressure;BME280_temperature;BME280_humidity;BME280_pressure;Samples;Min_cycle;Max_cycle;Signal;HPM_P1;HPM_P2
2023/04/05 00:01:13;;;;;;;10.90;5.32;;;;;;;8.56;44.06;96767.78;5024115;28;20072;-44
2023/04/05 00:03:42;;;;;;;8.80;4.90;;;;;;;8.60;43.08;96760.50;5025183;28;20123;-50
2023/04/05 00:06:15;;;;;;;7.72;5.07;;;;;;;8.54;43.02;96754.78;5024224;28;20081;-49
2023/04/05 00:08:49;;;;;;;7.20;4.75;;;;;;;8.47;43.16;96748.38;5029047;28;20089;-49
2023/04/05 00:11:18;;;;;;;10.43;5.22;;;;;;;8.51;43.63;96748.94;5025180;28;20076;-45
2023/04/05 00:13:46;;;;;;;8.90;4.85;;;;;;;8.61;43.71;96751.66;5027521;28;20080;-47
2023/04/05 00:16:15;;;;;;;9.30;5.07;;;;;;;8.58;43.31;96744.88;5023414;28;20172;-45
2023/04/05 00:18:48;;;;;;;9.00;5.20;;;;;;;8.61;43.24;96746.41;5022799;28;20798;-49
2023/04/05 00:21:27;;;;;;;9.57;5.47;;;;;;;8.09;44.63;96751.41;5022264;28;20096;-46
2023/04/05 00:23:57;;;;;;;9.80;5.00;;;;;;;8.14;44.95;96751.03;5025822;28;20080;-45
2023/04/05 00:26:25;;;;;;;9.05;4.88;;;;;;;7.93;45.98;96753.59;5026742;28;20085;-48
2023/04/05 00:28:54;;;;;;;10.20;5.22;;;;;;;8.20;45.88;96743.50;5029426;28;20081;-48
2023/04/05 00:31:22;;;;;;;10.45;5.28;;;;;;;8.42;44.52;96740.00;5023337;28;20084;-48
2023/04/05 00:33:50;;;;;;;11.02;5.50;;;;;;;8.52;44.37;96746.19;5023799;28;20085;-48
2023/04/05 00:36:20;;;;;;;9.98;5.70;;;;;;;8.56;43.98;96734.47;5032486;28;20104;-46
2023/04/05 00:38:50;;;;;;;12.77;5.85;;;;;;;8.63;45.11;96736.59;5026419;28;20088;-49
2023/04/05 00:41:18;;;;;;;10.52;5.15;;;;;;;8.49;45.55;96738.53;5029303;28;20076;-50
2023/04/05 00:43:47;;;;;;;9.50;5.30;;;;;;;8.57;45.61;96735.31;5027533;28;20087;-47
2023/04/05 00:46:15;;;;;;;10.48;5.30;;;;;;;8.13;47.25;96731.81;5026194;28;20476;-47
2023/04/05 00:48:44;;;;;;;10.63;5.75;;;;;;;8.30;46.39;96731.31;5023244;28;20080;-48
2023/04/05 00:51:12;;;;;;;8.68;5.03;;;;;;;8.39;46.75;96734.16;5027620;28;20096;-50
2023/04/05 00:53:41;;;;;;;8.68;5.30;;;;;;;8.29;47.46;96726.16;5026683;28;20085;-47
2023/04/05 00:56:12;;;;;;;9.65;5.50;;;;;;;8.46;46.76;96722.19;5024062;28;20069;-46
2023/04/05 00:58:41;;;;;;;11.90;5.63;;;;;;;8.33;45.91;96724.97;5027002;28;20541;-48
2023/04/05 01:01:13;;;;;;;8.77;5.07;;;;;;;8.31;45.52;96721.63;5021663;28;20081;-45
2023/04/05 01:03:44;;;;;;;12.05;6.30;;;;;;;8.54;45.06;96722.41;5024526;28;20458;-50
2023/04/05 01:06:37;;;;;;;9.55;5.13;;;;;;;8.72;44.85;96715.63;5029708;28;20077;-48
2023/04/05 01:09:10;;;;;;;10.32;5.97;;;;;;;8.79;44.60;96718.59;5023442;28;20551;-46
2023/04/05 01:11:40;;;;;;;7.63;5.28;;;;;;;8.59;44.92;96719.41;5025710;28;20127;-45
2023/04/05 01:14:08;;;;;;;9.15;5.30;;;;;;;8.69;44.97;96710.63;5030879;28;20080;-47
2023/04/05 01:16:36;;;;;;;8.68;5.50;;;;;;;8.71;44.90;96713.97;5020860;28;20477;-45
2023/04/05 01:19:05;;;;;;;10.50;4.90;;;;;;;8.61;45.17;96713.06;5027589;28;20087;-46
2023/04/05 01:21:58;;;;;;;6.82;4.15;;;;;;;8.42;45.90;96705.84;5030086;28;20081;-45
2023/04/05 01:24:37;;;;;;;8.60;5.63;;;;;;;8.43;45.59;96704.91;5033585;28;20519;-45
2023/04/05 01:27:10;;;;;;;9.77;4.97;;;;;;;8.37;45.41;96699.28;5033591;28;20080;-45
2023/04/05 01:29:57;;;;;;;7.25;5.13;;;;;;;8.48;44.70;96700.09;5028880;28;20091;-51
2023/04/05 01:32:36;;;;;;;9.10;5.07;;;;;;;8.47;44.57;96692.34;5027912;28;20474;-48
2023/04/05 01:35:10;;;;;;;11.02;5.00;;;;;;;8.20;44.67;96704.09;5027939;28;20091;-47
2023/04/05 01:37:39;;;;;;;9.77;5.10;;;;;;;7.98;45.54;96697.13;5032397;28;20081;-46
2023/04/05 01:40:09;;;;;;;9.77;5.78;;;;;;;7.53;46.51;96698.94;5026404;28;20093;-49
2023/04/05 01:42:37;;;;;;;11.75;5.95;;;;;;;7.96;46.01;96692.94;5029502;28;20080;-46
2023/04/05 01:45:08;;;;;;;8.25;5.10;;;;;;;7.93;45.79;96699.28;5032058;28;20089;-49
2023/04/05 01:47:36;;;;;;;8.73;5.43;;;;;;;7.84;46.66;96685.09;5026676;28;20092;-46
2023/04/05 01:50:06;;;;;;;10.43;6.25;;;;;;;7.89;46.30;96687.34;5028402;28;20088;-46
2023/04/05 01:52:34;;;;;;;10.73;6.05;;;;;;;7.73;47.45;96689.50;5032281;28;20085;-47
2023/04/05 01:55:03;;;;;;;10.55;5.22;;;;;;;7.96;46.72;96685.06;5032609;28;20592;-49
2023/04/05 01:57:31;;;;;;;8.80;5.03;;;;;;;7.80;46.79;96686.28;5024366;28;20520;-49
2023/04/05 02:00:00;;;;;;;7.57;4.93;;;;;;;7.91;46.40;96689.84;5033348;28;20088;-50
2023/04/05 02:02:30;;;;;;;9.38;5.18;;;;;;;7.87;46.18;96683.16;5028456;28;20076;-46
2023/04/05 02:04:58;;;;;;;8.75;4.93;;;;;;;7.70;45.88;96689.75;5026956;28;20091;-49
2023/04/05 02:07:26;;;;;;;10.48;5.13;;;;;;;7.64;46.55;96684.97;5028202;28;20503;-48
2023/04/05 02:09:55;;;;;;;8.27;4.20;;;;;;;7.20;48.10;96691.91;5030431;28;20084;-48
2023/04/05 02:12:23;;;;;;;7.38;4.47;;;;;;;7.34;47.95;96687.28;5027284;28;20096;-46
2023/04/05 02:14:52;;;;;;;8.55;5.38;;;;;;;7.14;48.35;96690.59;5029785;28;20052;-46
2023/04/05 02:17:20;;;;;;;11.32;5.90;;;;;;;7.13;48.29;96683.69;5028996;28;20076;-47
2023/04/05 02:19:51;;;;;;;11.32;6.00;;;;;;;7.46;47.28;96674.13;5029145;28;20092;-47
2023/04/05 02:22:20;;;;;;;10.85;5.53;;;;;;;7.22;48.38;96674.25;5068851;28;20673;-48
2023/04/05 02:24:49;;;;;;;12.88;6.10;;;;;;;7.09;49.17;96674.38;5027183;28;20093;-51
2023/04/05 02:27:17;;;;;;;11.05;6.20;;;;;;;7.29;48.32;96670.19;5028574;28;20699;-46
2023/04/05 02:29:45;;;;;;;13.20;6.72;;;;;;;7.55;48.59;96663.75;5024941;28;20087;-45
2023/04/05 02:32:14;;;;;;;12.50;6.68;;;;;;;7.64;47.82;96667.47;5021532;28;20091;-48
2023/04/05 02:34:42;;;;;;;9.70;6.25;;;;;;;7.53;47.36;96665.66;5023744;28;20096;-45
2023/04/05 02:37:12;;;;;;;13.15;6.20;;;;;;;7.37;48.47;96667.84;5028527;28;20091;-44
2023/04/05 02:39:40;;;;;;;12.57;6.37;;;;;;;7.61;47.88;96663.28;5027154;28;20092;-48
2023/04/05 02:42:08;;;;;;;8.57;5.60;;;;;;;7.56;47.31;96661.97;5027507;28;20092;-49
2023/04/05 02:44:37;;;;;;;12.02;6.20;;;;;;;7.58;46.66;96660.06;5020757;28;20085;-47
2023/04/05 02:47:05;;;;;;;11.55;6.18;;;;;;;7.65;46.30;96653.38;5019176;28;20085;-49
2023/04/05 02:49:33;;;;;;;12.23;6.45;;;;;;;7.71;46.35;96649.41;5025972;28;20498;-46
2023/04/05 02:52:02;;;;;;;12.30;6.28;;;;;;;7.73;46.21;96650.97;5028611;28;20090;-46
2023/04/05 02:54:31;;;;;;;11.30;6.45;;;;;;;7.72;46.01;96656.34;5025611;28;20104;-45
2023/04/05 02:57:01;;;;;;;12.23;5.93;;;;;;;7.65;46.12;96656.00;5025626;28;20088;-48
2023/04/05 02:59:29;;;;;;;10.75;6.25;;;;;;;7.44;46.39;96660.31;5027491;28;20511;-46
2023/04/05 03:01:57;;;;;;;9.15;6.32;;;;;;;7.60;46.14;96650.28;5023053;28;20095;-49
2023/04/05 03:04:26;;;;;;;11.43;6.28;;;;;;;7.64;45.98;96645.59;5024093;28;20089;-47
2023/04/05 03:06:56;;;;;;;11.77;5.20;;;;;;;7.33;47.48;96655.91;5020033;28;20084;-54
2023/04/05 03:09:26;;;;;;;10.25;5.72;;;;;;;7.37;48.26;96652.94;5021138;28;20101;-48
2023/04/05 03:11:55;;;;;;;8.35;5.55;;;;;;;7.08;49.15;96656.97;5027451;28;20085;-54
2023/04/05 03:14:24;;;;;;;10.90;6.28;;;;;;;7.54;47.28;96648.97;5025892;28;20085;-47
2023/04/05 03:16:52;;;;;;;11.32;6.05;;;;;;;7.46;46.99;96653.16;5021672;28;20103;-47
2023/04/05 03:19:21;;;;;;;10.82;5.43;;;;;;;7.38;46.91;96651.13;5028098;28;20081;-43
2023/04/05 03:21:49;;;;;;;10.02;6.00;;;;;;;7.46;46.35;96647.91;5018179;28;20493;-48
2023/04/05 03:24:18;;;;;;;11.55;5.53;;;;;;;7.54;46.63;96643.72;5023499;28;20069;-47
2023/04/05 03:26:47;;;;;;;10.77;5.90;;;;;;;7.63;46.91;96638.69;5027122;28;20084;-45
2023/04/05 03:29:17;;;;;;;12.25;5.72;;;;;;;7.60;47.35;96650.28;5024290;28;20956;-49
2023/04/05 03:31:45;;;;;;;12.60;6.28;;;;;;;7.60;47.48;96638.00;5028604;28;20089;-48
2023/04/05 03:34:14;;;;;;;8.70;5.38;;;;;;;7.64;47.20;96640.34;5026655;28;20105;-48
2023/04/05 03:36:42;;;;;;;10.13;5.95;;;;;;;7.56;46.91;96644.44;5024905;28;20053;-47
2023/04/05 03:39:12;;;;;;;9.30;5.63;;;;;;;7.55;46.83;96642.78;5025378;28;20081;-48
2023/04/05 03:41:41;;;;;;;9.70;5.70;;;;;;;7.55;47.02;96639.31;5024465;28;20104;-47
2023/04/05 03:44:09;;;;;;;11.70;6.15;;;;;;;7.24;47.20;96643.50;5022271;28;20132;-50
2023/04/05 03:46:39;;;;;;;10.20;5.55;;;;;;;7.17;48.21;96645.78;5018460;28;20102;-51
2023/04/05 03:49:07;;;;;;;11.03;6.60;;;;;;;7.54;47.27;96640.28;5024404;28;20092;-47
2023/04/05 03:51:36;;;;;;;9.05;5.85;;;;;;;7.34;47.68;96650.53;5067400;28;20525;-47
2023/04/05 03:54:05;;;;;;;12.10;6.65;;;;;;;7.48;47.48;96646.00;5029636;28;20109;-51
2023/04/05 03:56:33;;;;;;;9.52;5.80;;;;;;;7.52;47.19;96648.25;5032368;28;20089;-50
2023/04/05 03:59:02;;;;;;;8.68;5.53;;;;;;;7.44;47.41;96644.59;5033946;28;20076;-46
2023/04/05 04:01:31;;;;;;;9.32;5.57;;;;;;;7.56;47.38;96638.34;5034598;28;20103;-48
2023/04/05 04:04:01;;;;;;;11.40;6.05;;;;;;;7.40;47.54;96645.75;5035339;28;20077;-45
2023/04/05 04:06:29;;;;;;;10.82;6.18;;;;;;;7.29;47.70;96646.59;5035808;28;20081;-49
2023/04/05 04:08:57;;;;;;;12.05;5.88;;;;;;;7.51;47.38;96637.91;5033605;28;20089;-48
2023/04/05 04:11:26;;;;;;;8.52;5.70;;;;;;;7.37;47.54;96647.69;5032908;28;20082;-47
2023/04/05 04:13:54;;;;;;;11.02;6.22;;;;;;;7.32;47.58;96641.94;5033014;28;20131;-51
2023/04/05 04:16:22;;;;;;;9.35;5.85;;;;;;;7.25;47.76;96642.56;5035152;28;20087;-46
2023/04/05 04:18:53;;;;;;;12.63;6.25;;;;;;;7.22;47.83;96646.25;5032422;28;20089;-47
2023/04/05 04:21:23;;;;;;;12.43;6.93;;;;;;;7.20;47.93;96647.34;5034135;28;20077;-47
2023/04/05 04:23:52;;;;;;;8.63;5.53;;;;;;;7.06;48.34;96646.59;5032060;28;20107;-48
2023/04/05 04:26:27;;;;;;;11.88;5.82;;;;;;;7.19;48.48;96643.03;5042460;28;20537;-47
2023/04/05 04:28:55;;;;;;;9.30;5.43;;;;;;;7.05;49.13;96647.53;5034747;28;20084;-47
2023/04/05 04:31:24;;;;;;;9.02;5.70;;;;;;;7.21;48.59;96643.75;5040578;28;20096;-49
2023/04/05 04:33:54;;;;;;;13.90;6.80;;;;;;;7.04;49.20;96632.78;5035653;28;20087;-49
2023/04/05 04:36:33;;;;;;;10.05;6.22;;;;;;;7.01;49.47;96634.78;5024463;28;20088;-49
2023/04/05 04:39:04;;;;;;;13.93;7.15;;;;;;;7.25;48.85;96634.69;5028673;28;20088;-48
2023/04/05 04:41:34;;;;;;;13.07;6.25;;;;;;;7.27;48.54;96635.41;5030161;28;20085;-46
2023/04/05 04:44:03;;;;;;;10.20;4.45;;;;;;;7.08;48.95;96638.59;5035705;28;20559;-49
2023/04/05 04:46:41;;;;;;;5.80;3.17;;;;;;;7.04;49.37;96634.56;5030871;28;20085;-50
2023/04/05 04:49:10;;;;;;;15.52;5.97;;;;;;;6.90;49.60;96639.06;5035981;28;20072;-51
2023/04/05 04:51:39;;;;;;;9.38;5.15;;;;;;;6.72;50.39;96635.25;5031868;28;20108;-50
2023/04/05 04:54:08;;;;;;;7.10;4.55;;;;;;;6.73;50.23;96642.16;5027659;28;20084;-46
2023/04/05 04:56:36;;;;;;;9.35;5.82;;;;;;;6.85;50.01;96633.38;5034273;28;20532;-52
2023/04/05 04:59:04;;;;;;;9.02;3.85;;;;;;;6.85;50.50;96635.97;5028684;28;20088;-49
2023/04/05 05:01:34;;;;;;;10.00;5.95;;;;;;;6.83;50.76;96640.50;5035824;28;20554;-47
2023/04/05 05:04:03;;;;;;;11.27;5.73;;;;;;;6.78;50.71;96639.16;5030599;28;20080;-46
2023/04/05 05:06:32;;;;;;;11.98;5.97;;;;;;;7.04;50.78;96637.19;5036992;28;20402;-49
2023/04/05 05:09:02;;;;;;;7.55;5.32;;;;;;;7.65;48.97;96635.00;5031070;28;20487;-52
2023/04/05 05:11:30;;;;;;;14.68;6.78;;;;;;;8.14;47.61;96630.22;5042765;28;20080;-47
2023/04/05 05:13:59;;;;;;;12.07;6.78;;;;;;;8.42;46.59;96626.19;5029089;28;20081;-46
2023/04/05 05:16:27;;;;;;;8.85;5.15;;;;;;;8.26;46.38;96632.69;5033824;28;20085;-50
2023/04/05 05:18:56;;;;;;;12.63;6.45;;;;;;;8.35;46.38;96635.50;5029955;28;20480;-49
2023/04/05 05:21:25;;;;;;;8.20;5.35;;;;;;;8.28;46.25;96629.91;5039020;28;20096;-47
2023/04/05 05:23:54;;;;;;;11.13;6.28;;;;;;;8.25;46.17;96630.16;5033159;28;20374;-46
2023/04/05 05:26:23;;;;;;;10.65;5.70;;;;;;;8.17;46.62;96636.06;5034221;28;20077;-50
2023/04/05 05:28:52;;;;;;;12.43;6.28;;;;;;;8.12;47.18;96632.13;5030543;28;20073;-47
2023/04/05 05:31:21;;;;;;;9.63;6.10;;;;;;;7.77;47.48;96639.25;5030666;28;20533;-47
2023/04/05 05:33:50;;;;;;;11.23;5.70;;;;;;;7.81;47.57;96637.22;5037164;28;20089;-47
2023/04/05 05:36:18;;;;;;;10.40;5.38;;;;;;;8.25;47.13;96627.53;5026767;28;20084;-47
2023/04/05 05:38:47;;;;;;;8.90;4.82;;;;;;;8.09;47.29;96636.69;5031585;28;20081;-47
2023/04/05 05:41:16;;;;;;;10.07;5.72;;;;;;;8.59;46.54;96632.66;5028387;28;20171;-52
2023/04/05 05:43:45;;;;;;;9.50;5.72;;;;;;;8.51;46.51;96638.56;5027693;28;20099;-47
2023/04/05 05:46:14;;;;;;;6.00;4.07;;;;;;;8.45;46.48;96639.91;5037896;28;20085;-47
2023/04/05 05:48:43;;;;;;;5.88;3.55;;;;;;;8.79;45.58;96648.44;5030985;28;20084;-45
2023/04/05 05:51:11;;;;;;;7.38;4.72;;;;;;;8.70;45.85;96643.09;5032052;28;20069;-47
2023/04/05 05:53:40;;;;;;;6.80;4.35;;;;;;;8.31;46.65;96651.50;5033694;28;20096;-49
2023/04/05 05:56:08;;;;;;;12.65;5.50;;;;;;;8.65;46.04;96651.38;5036532;28;20499;-48
2023/04/05 05:58:37;;;;;;;15.20;6.00;;;;;;;8.86;45.58;96656.63;5038216;28;20089;-50
2023/04/05 06:01:07;;;;;;;7.25;3.63;;;;;;;8.50;45.86;96655.31;5033307;28;20102;-52
2023/04/05 06:03:35;;;;;;;10.70;5.30;;;;;;;9.07;44.92;96656.63;5032120;28;20085;-46
2023/04/05 06:06:07;;;;;;;6.95;4.68;;;;;;;9.12;44.25;96648.31;5037441;28;20528;-49
2023/04/05 06:08:35;;;;;;;8.77;5.10;;;;;;;9.50;44.53;96653.78;5038019;28;20076;-46
2023/04/05 06:11:03;;;;;;;8.00;4.60;;;;;;;8.96;44.96;96654.06;5032219;28;20099;-52
2023/04/05 06:13:36;;;;;;;9.25;3.88;;;;;;;9.44;44.08;96654.31;5037827;28;20647;-48
2023/04/05 06:16:06;;;;;;;8.27;4.93;;;;;;;9.33;44.30;96653.56;5035992;28;20076;-48
2023/04/05 06:18:35;;;;;;;10.02;4.53;;;;;;;9.39;43.79;96653.84;5036351;28;20073;-46
2023/04/05 06:21:03;;;;;;;9.98;4.25;;;;;;;9.95;43.30;96653.34;5031105;28;20080;-49
2023/04/05 06:23:31;;;;;;;7.38;3.80;;;;;;;9.76;43.80;96650.66;5038774;28;20084;-47
2023/04/05 06:26:00;;;;;;;7.00;3.65;;;;;;;9.38;43.38;96667.16;5039097;28;20085;-49
2023/04/05 06:28:28;;;;;;;11.55;4.30;;;;;;;9.31;44.34;96664.22;5030394;28;20089;-48
2023/04/05 06:30:58;;;;;;;8.93;4.25;;;;;;;9.56;44.22;96657.66;5028320;28;20089;-46
2023/04/05 06:33:28;;;;;;;6.82;3.50;;;;;;;9.69;43.95;96655.63;5036097;28;20081;-47
2023/04/05 06:35:56;;;;;;;7.45;3.97;;;;;;;9.56;44.33;96662.91;5033357;28;20142;-50
2023/04/05 06:38:24;;;;;;;5.18;3.13;;;;;;;10.17;43.28;96652.25;5037307;28;20095;-48
2023/04/05 06:40:53;;;;;;;5.72;3.15;;;;;;;10.12;43.04;96654.47;5036174;28;20136;-49
2023/04/05 06:43:21;;;;;;;12.07;3.70;;;;;;;10.06;43.20;96651.56;5041066;28;20091;-49
2023/04/05 06:45:50;;;;;;;7.30;3.88;;;;;;;9.97;43.14;96655.81;5034282;28;20215;-50
2023/04/05 06:48:18;;;;;;;5.47;3.90;;;;;;;10.14;42.65;96656.97;5030510;28;20077;-50
2023/04/05 06:50:56;;;;;;;9.35;5.38;;;;;;;10.15;43.06;96648.94;5038224;28;20080;-50
2023/04/05 06:53:26;;;;;;;6.18;3.55;;;;;;;11.08;41.71;96644.88;5030861;28;20532;-49
2023/04/05 06:55:55;;;;;;;9.20;4.00;;;;;;;11.11;41.86;96641.09;5027875;28;20088;-54
2023/04/05 06:58:23;;;;;;;6.55;3.85;;;;;;;11.10;41.28;96647.34;5025947;28;20085;-49
2023/04/05 07:00:52;;;;;;;7.38;4.38;;;;;;;11.48;40.37;96641.09;5035307;28;20480;-49
2023/04/05 07:03:20;;;;;;;8.38;4.40;;;;;;;10.43;40.48;96641.22;5031990;28;20087;-49
2023/04/05 07:05:54;;;;;;;5.97;3.55;;;;;;;10.32;40.08;96646.59;5039959;28;20089;-51
2023/04/05 07:08:23;;;;;;;7.22;3.88;;;;;;;9.74;40.49;96658.72;5030032;28;20081;-45
2023/04/05 07:10:51;;;;;;;6.82;4.32;;;;;;;9.74;40.76;96652.59;5030779;28;20085;-46
2023/04/05 07:13:21;;;;;;;7.68;4.15;;;;;;;10.13;40.09;96645.59;5039123;28;20084;-48
2023/04/05 07:15:50;;;;;;;7.10;3.70;;;;;;;10.08;39.82;96649.59;5038638;28;20611;-49
2023/04/05 07:18:19;;;;;;;8.23;3.53;;;;;;;10.94;39.14;96642.66;5041640;28;20499;-51
2023/04/05 07:20:48;;;;;;;4.50;2.88;;;;;;;10.07;39.24;96654.03;5031313;28;20096;-50
2023/04/05 07:23:18;;;;;;;6.90;3.28;;;;;;;10.01;39.87;96657.22;5039826;28;20541;-46
2023/04/05 07:25:48;;;;;;;8.02;3.78;;;;;;;10.63;39.29;96649.91;5030757;28;20100;-46
2023/04/05 07:28:17;;;;;;;5.30;3.50;;;;;;;10.38;39.51;96644.25;5036534;28;20100;-47
2023/04/05 07:30:45;;;;;;;5.10;2.72;;;;;;;10.15;39.45;96654.22;5034495;28;20084;-48
2023/04/05 07:33:13;;;;;;;5.88;3.13;;;;;;;10.49;39.24;96647.72;5038918;28;20093;-44
2023/04/05 07:35:42;;;;;;;6.30;3.78;;;;;;;10.03;38.97;96659.72;5030118;28;20081;-47
2023/04/05 07:38:11;;;;;;;6.03;3.28;;;;;;;10.13;38.99;96661.41;5031109;28;20123;-48
2023/04/05 07:40:40;;;;;;;5.15;2.60;;;;;;;10.09;38.84;96659.19;5037453;28;20092;-45
2023/04/05 07:43:09;;;;;;;7.68;3.50;;;;;;;11.10;37.80;96650.81;5034031;28;20092;-47
2023/04/05 07:45:37;;;;;;;6.63;3.42;;;;;;;10.69;38.60;96663.38;5034317;28;20088;-47
2023/04/05 07:48:06;;;;;;;12.40;3.95;;;;;;;10.93;38.81;96654.19;5033509;28;20099;-45
2023/04/05 07:50:35;;;;;;;10.48;3.90;;;;;;;10.72;38.74;96653.53;5029461;28;20084;-46
2023/04/05 07:53:03;;;;;;;6.43;3.33;;;;;;;11.05;38.10;96653.06;5034524;28;20096;-45
2023/04/05 07:55:31;;;;;;;9.00;3.08;;;;;;;11.75;36.97;96650.84;5029420;28;20129;-48
2023/04/05 07:58:01;;;;;;;6.90;3.95;;;;;;;12.09;36.54;96645.81;5033913;28;20092;-47
2023/04/05 08:00:29;;;;;;;4.53;3.05;;;;;;;11.14;36.36;96660.09;5024609;28;20088;-47
2023/04/05 08:02:57;;;;;;;5.65;2.90;;;;;;;12.27;35.95;96655.56;5038229;28;20465;-48
2023/04/05 08:05:29;;;;;;;6.15;3.22;;;;;;;11.64;35.90;96665.09;5032016;28;20533;-46
2023/04/05 08:07:58;;;;;;;8.20;3.90;;;;;;;11.61;35.71;96653.97;5036424;28;20081;-49
2023/04/05 08:10:26;;;;;;;4.95;2.60;;;;;;;11.37;35.33;96657.13;5029025;28;20085;-45
2023/04/05 08:12:54;;;;;;;6.82;3.80;;;;;;;11.89;35.42;96662.75;5040590;28;20121;-48
2023/04/05 08:15:24;;;;;;;3.72;2.60;;;;;;;11.96;35.41;96660.34;5037727;28;20084;-45
2023/04/05 08:17:52;;;;;;;6.53;3.77;;;;;;;11.13;35.53;96657.63;5034317;28;20490;-47
2023/04/05 08:20:21;;;;;;;6.32;3.05;;;;;;;11.17;34.78;96664.28;5032453;28;20084;-46
2023/04/05 08:22:49;;;;;;;6.80;4.13;;;;;;;10.64;36.02;96660.34;5029475;28;20088;-47
2023/04/05 08:25:17;;;;;;;5.60;2.80;;;;;;;11.39;35.62;96656.03;5033436;28;20080;-47
2023/04/05 08:27:45;;;;;;;6.40;3.10;;;;;;;11.48;35.07;96641.09;5032257;28;20073;-46
2023/04/05 08:30:15;;;;;;;4.10;2.40;;;;;;;12.33;34.65;96639.94;5032449;28;20481;-49
2023/04/05 08:32:45;;;;;;;6.57;3.40;;;;;;;11.73;35.68;96652.78;5030303;28;20085;-47
2023/04/05 08:35:13;;;;;;;5.33;2.87;;;;;;;12.38;34.34;96649.22;5035218;28;20077;-47
2023/04/05 08:37:41;;;;;;;4.38;2.80;;;;;;;12.11;34.77;96650.94;5031692;28;20072;-48
2023/04/05 08:40:10;;;;;;;6.63;3.15;;;;;;;12.49;34.17;96643.69;5027819;28;20076;-49
2023/04/05 08:42:42;;;;;;;6.30;3.30;;;;;;;12.27;34.22;96645.81;5032100;28;20085;-47
2023/04/05 08:45:12;;;;;;;7.72;3.95;;;;;;;12.35;34.40;96645.91;5042427;28;20076;-47
2023/04/05 08:47:41;;;;;;;6.43;2.97;;;;;;;12.59;33.87;96640.00;5035208;28;20462;-47
2023/04/05 08:50:12;;;;;;;6.55;3.17;;;;;;;12.55;33.39;96646.56;5035418;28;20092;-46
2023/04/05 08:52:42;;;;;;;8.43;2.40;;;;;;;12.15;33.36;96649.66;5027822;28;20104;-44
2023/04/05 08:55:10;;;;;;;4.88;3.55;;;;;;;13.02;32.86;96640.97;5031857;28;20080;-48
2023/04/05 08:57:39;;;;;;;8.05;4.00;;;;;;;12.70;32.41;96646.03;5032826;28;20080;-45
2023/04/05 09:00:10;;;;;;;8.10;3.72;;;;;;;12.48;33.45;96642.88;5029621;28;20110;-46
2023/04/05 09:02:38;;;;;;;6.90;3.78;;;;;;;13.66;32.13;96648.63;5036667;28;20466;-46
2023/04/05 09:05:11;;;;;;;8.02;3.83;;;;;;;13.33;31.67;96643.19;5032531;28;20085;-50
2023/04/05 09:07:40;;;;;;;7.07;3.55;;;;;;;14.27;31.14;96636.06;5032361;28;20072;-50
2023/04/05 09:10:09;;;;;;;6.75;4.10;;;;;;;12.83;32.07;96647.31;5032350;28;20049;-45
2023/04/05 09:12:38;;;;;;;7.10;4.13;;;;;;;13.30;32.55;96639.03;5034907;28;20076;-49
2023/04/05 09:15:07;;;;;;;7.00;4.20;;;;;;;13.57;32.57;96641.66;5035479;28;20084;-44
2023/04/05 09:17:38;;;;;;;9.35;4.15;;;;;;;13.65;32.38;96641.66;5034851;28;20081;-48
2023/04/05 09:20:07;;;;;;;6.72;3.65;;;;;;;14.44;31.03;96627.94;5029543;28;20081;-49
2023/04/05 09:22:44;;;;;;;6.03;2.63;;;;;;;12.86;32.75;96640.03;5034461;28;20073;-47
2023/04/05 09:25:33;;;;;;;6.55;3.75;;;;;;;13.65;32.00;96639.03;5036662;28;20104;-47
2023/04/05 09:28:03;;;;;;;7.90;4.80;;;;;;;13.89;31.76;96630.34;5027418;28;20080;-50
2023/04/05 09:30:33;;;;;;;9.55;3.85;;;;;;;14.67;30.93;96627.34;5036687;28;20081;-49
2023/04/05 09:33:01;;;;;;;6.72;3.03;;;;;;;13.89;30.84;96635.63;5032244;28;20077;-48
2023/04/05 09:35:31;;;;;;;4.57;2.55;;;;;;;14.38;30.40;96633.94;5031487;28;20095;-43
2023/04/05 09:38:02;;;;;;;9.80;4.23;;;;;;;15.30;29.29;96623.94;5033204;28;20073;-46
2023/04/05 09:40:43;;;;;;;;;;;;;;;14.72;29.20;96625.00;5030545;28;20246;-44
2023/04/05 09:43:12;;;;;;;9.38;3.92;;;;;;;14.04;30.25;96635.84;5040442;28;20360;-48
2023/04/05 09:45:41;;;;;;;5.78;3.75;;;;;;;13.97;29.29;96635.66;5025439;28;20513;-46
2023/04/05 09:48:11;;;;;;;4.78;3.15;;;;;;;14.13;30.28;96642.84;5034617;28;20077;-45
2023/04/05 09:50:40;;;;;;;5.88;3.28;;;;;;;14.99;28.59;96628.31;5028391;28;20089;-52
2023/04/05 09:53:14;;;;;;;9.40;6.30;;;;;;;15.56;29.00;96617.56;5035703;28;20109;-44
2023/04/05 09:55:43;;;;;;;8.73;4.90;;;;;;;15.85;28.46;96615.13;5029227;28;20084;-45
2023/04/05 09:58:12;;;;;;;6.72;3.90;;;;;;;15.35;29.21;96629.59;5036981;28;20095;-49
2023/04/05 10:00:51;;;;;;;6.80;3.72;;;;;;;14.90;29.20;96628.34;5039773;28;20073;-46
2023/04/05 10:03:27;;;;;;;7.70;3.72;;;;;;;14.39;29.18;96626.81;5033474;28;20696;-43
2023/04/05 10:05:55;;;;;;;6.15;2.88;;;;;;;14.32;29.40;96628.47;5031298;28;20088;-49
2023/04/05 10:08:26;;;;;;;6.30;3.67;;;;;;;14.04;29.89;96638.50;5032414;28;20085;-46
2023/04/05 10:10:55;;;;;;;5.40;3.67;;;;;;;14.13;29.25;96632.22;5027377;28;20124;-47
2023/04/05 10:13:23;;;;;;;4.65;3.53;;;;;;;14.87;29.25;96630.50;5034898;28;20088;-45
2023/04/05 10:15:54;;;;;;;6.40;3.97;;;;;;;14.74;28.71;96625.69;5036926;28;20080;-45
2023/04/05 10:18:29;;;;;;;6.40;3.72;;;;;;;15.31;28.25;96617.66;5038356;28;20092;-46
2023/04/05 10:20:58;;;;;;;5.70;3.72;;;;;;;15.67;27.70;96609.22;5032124;28;20195;-47
2023/04/05 10:23:32;;;;;;;6.75;4.18;;;;;;;14.76;29.93;96607.75;5039087;28;20084;-46
2023/04/05 10:26:05;;;;;;;5.90;3.67;;;;;;;15.51;29.05;96618.06;5033796;28;20065;-49
2023/04/05 10:28:35;;;;;;;7.65;4.35;;;;;;;15.68;29.82;96623.34;5036707;28;20085;-47
2023/04/05 10:31:11;;;;;;;7.90;3.87;;;;;;;15.27;28.70;96613.66;5033729;28;20088;-48
2023/04/05 10:33:45;;;;;;;7.53;4.53;;;;;;;14.07;29.77;96628.38;5036075;28;20076;-47
2023/04/05 10:36:19;;;;;;;3.92;2.78;;;;;;;15.31;29.19;96614.13;5034157;28;20103;-48
2023/04/05 10:39:03;;;;;;;6.60;3.60;;;;;;;16.13;27.58;96598.69;5032273;28;20069;-47
2023/04/05 10:41:34;;;;;;;7.32;4.57;;;;;;;17.15;26.95;96595.72;5035237;28;20509;-51
2023/04/05 10:44:04;;;;;;;6.80;3.17;;;;;;;16.26;27.80;96600.78;5040549;28;20085;-48
2023/04/05 10:46:50;;;;;;;6.45;3.58;;;;;;;16.31;28.46;96601.91;5034372;28;20456;-46
2023/04/05 10:49:23;;;;;;;5.85;3.95;;;;;;;15.89;28.40;96599.66;5035027;28;20080;-47
2023/04/05 10:51:51;;;;;;;8.95;3.97;;;;;;;15.63;28.94;96613.22;5031476;28;20064;-50
2023/04/05 10:54:21;;;;;;;13.93;3.60;;;;;;;16.23;28.51;96598.47;5033259;28;20084;-50
2023/04/05 10:56:50;;;;;;;6.65;3.28;;;;;;;16.90;27.85;96595.16;5032931;28;20065;-48
2023/04/05 10:59:21;;;;;;;6.88;4.10;;;;;;;16.53;28.53;96594.91;5032688;28;20069;-49
2023/04/05 11:01:50;;;;;;;6.90;3.78;;;;;;;16.97;27.83;96596.91;5033445;28;20488;-51
2023/04/05 11:04:19;;;;;;;5.63;2.97;;;;;;;16.24;27.80;96597.44;5034220;28;20076;-49
2023/04/05 11:06:48;;;;;;;6.85;3.50;;;;;;;16.48;29.16;96591.97;5030754;28;20077;-51
2023/04/05 11:09:17;;;;;;;6.07;3.88;;;;;;;16.63;27.58;96596.50;5043376;28;20056;-53
2023/04/05 11:11:48;;;;;;;6.65;3.95;;;;;;;16.51;27.42;96593.44;5030125;28;20429;-50
2023/04/05 11:14:19;;;;;;;6.65;3.85;;;;;;;17.53;27.50;96585.81;5040205;28;20076;-51
2023/04/05 11:16:49;;;;;;;5.90;3.40;;;;;;;17.35;26.80;96585.34;5033888;28;20068;-52
2023/04/05 11:19:17;;;;;;;5.35;3.75;;;;;;;17.65;28.04;96581.66;5033267;28;20081;-45
2023/04/05 11:21:46;;;;;;;7.80;4.10;;;;;;;16.16;28.19;96587.69;5030539;28;20445;-47
2023/04/05 11:24:15;;;;;;;5.78;3.53;;;;;;;16.14;28.04;96590.53;5032257;28;20073;-48
2023/04/05 11:26:57;;;;;;;5.55;3.65;;;;;;;15.95;27.10;96585.66;5029791;28;20092;-47
2023/04/05 11:29:48;;;;;;;4.82;3.20;;;;;;;15.84;28.39;96583.41;5037806;28;20081;-47
2023/04/05 11:32:16;;;;;;;3.75;1.67;;;;;;;16.81;28.43;96575.75;5035138;28;20080;-46
2023/04/05 11:34:45;;;;;;;5.43;3.95;;;;;;;16.66;27.77;96586.34;5038560;28;20088;-46
2023/04/05 11:37:15;;;;;;;4.07;2.95;;;;;;;16.08;27.70;96574.44;5036707;28;20536;-44
2023/04/05 11:39:43;;;;;;;7.45;3.97;;;;;;;16.94;27.33;96572.47;5032116;28;20088;-46
2023/04/05 11:42:17;;;;;;;6.20;3.97;;;;;;;17.38;27.14;96574.31;5036676;28;20087;-49
2023/04/05 11:44:46;;;;;;;5.63;3.80;;;;;;;16.74;27.33;96567.63;5036189;28;20537;-47
2023/04/05 11:47:17;;;;;;;5.60;3.28;;;;;;;16.36;27.25;96569.44;5036500;28;20080;-51
2023/04/05 11:49:49;;;;;;;3.92;3.10;;;;;;;16.11;27.59;96572.25;5033674;28;20077;-46